Time;durP1;ratioP1;P1;durP2;ratioP2;P2;SDS_P1;SDS_P2;PMS_P1;PMS_P2;Temp;Humidity;BMP_temperature;BMP_pressure;BME280_temperature;BME280_humidity;BME280_pressure;Samples;Min_cycle;Max_cycle;Signal;HPM_P1;HPM_P2
2021/12/24 00:00:35;;;;;;;98.88;31.85;;;5.20;99.90;;;;;;4954418;28;20046;-96
2021/12/24 00:03:14;;;;;;;83.70;29.02;;;6.30;99.90;;;;;;4953812;28;20057;-95
2021/12/24 00:05:51;;;;;;;92.95;31.58;;;5.90;99.90;;;;;;4939304;28;20047;-94
2021/12/24 00:08:32;;;;;;;89.63;29.85;;;4.40;99.90;;;;;;4954124;28;20133;-95
2021/12/24 00:11:05;;;;;;;87.90;28.23;;;5.30;99.90;;;;;;4938394;28;20723;-95
2021/12/24 00:13:46;;;;;;;88.45;28.77;;;5.30;99.90;;;;;;4937587;28;20088;-95
2021/12/24 00:16:37;;;;;;;96.57;31.52;;;5.40;99.90;;;;;;4938382;28;20134;-95
2021/12/24 00:19:25;;;;;;;76.10;27.70;;;5.40;99.90;;;;;;4937918;28;20045;-95
2021/12/24 00:35:35;;;;;;;90.63;27.98;;;6.60;99.90;;;;;;4949990;28;20082;-95
2021/12/24 00:38:12;;;;;;;106.43;29.48;;;5.40;99.90;;;;;;4940222;28;20046;-95
2021/12/24 00:40:55;;;;;;;98.30;27.83;;;5.50;99.90;;;;;;4938831;28;20501;-95
2021/12/24 00:43:35;;;;;;;111.07;29.40;;;5.60;99.90;;;;;;4942767;28;20047;-96
2021/12/24 00:47:32;;;;;;;;;;;;;;;;;;;;;
2021/12/24 01:00:49;;;;;;;59.90;21.02;;;4.80;99.90;;;;;;4924635;28;20058;-95
2021/12/24 01:03:27;;;;;;;75.93;23.85;;;5.80;99.90;;;;;;4934786;29;20051;-95
2021/12/24 01:06:12;;;;;;;71.63;23.73;;;6.00;99.90;;;;;;4936813;29;20047;-95
2021/12/24 01:08:42;;;;;;;91.75;25.35;;;6.30;99.90;;;;;;4935317;29;20152;-95
2021/12/24 01:11:30;;;;;;;71.10;24.05;;;5.10;99.90;;;;;;4937760;29;20043;-96
2021/12/24 01:14:09;;;;;;;83.53;24.25;;;6.80;99.90;;;;;;4938264;29;20043;-94
2021/12/24 01:19:53;;;;;;;79.50;22.75;;;6.80;99.90;;;;;;4938148;28;20545;-94
2021/12/24 01:23:28;;;;;;;64.32;20.77;;;5.60;99.90;;;;;;4948334;28;20046;-94
2021/12/24 01:25:40;;;;;;;60.10;19.27;;;5.20;99.90;;;;;;4991128;28;20038;-94
2021/12/24 01:29:05;;;;;;;76.30;22.45;;;6.20;99.90;;;;;;4993899;28;20585;-95
2021/12/24 01:39:02;;;;;;;53.83;17.27;;;5.70;99.90;;;;;;4997455;28;20121;-94
2021/12/24 01:44:38;;;;;;;49.22;17.25;;;6.50;99.90;;;;;;4992631;28;20046;-94
2021/12/24 01:47:52;;;;;;;49.42;17.48;;;6.30;99.90;;;;;;4977145;28;20057;-94
2021/12/24 01:50:46;;;;;;;;;;;5.90;99.90;;;;;;4973343;28;20079;-93
2021/12/24 01:53:21;;;;;;;49.78;16.95;;;5.20;99.90;;;;;;4976108;28;19922;-95
2021/12/24 01:55:58;;;;;;;52.00;17.02;;;6.00;99.90;;;;;;4977227;28;20057;-95
2021/12/24 01:58:42;;;;;;;50.17;16.70;;;7.00;99.90;;;;;;4978868;28;20053;-96
2021/12/24 02:01:57;;;;;;;;;;;;;;;;;;;;;
2021/12/24 02:05:06;;;;;;;34.17;12.98;;;6.00;99.90;;;;;;5012880;23;20046;-95
2021/12/24 02:08:23;;;;;;;31.25;11.65;;;6.10;99.90;;;;;;4961384;28;20076;-95
2021/12/24 02:10:59;;;;;;;33.55;12.45;;;6.10;99.90;;;;;;4962218;28;20046;-95
2021/12/24 02:13:39;;;;;;;29.60;11.75;;;7.00;99.90;;;;;;4941213;28;20050;-94
2021/12/24 02:30:15;;;;;;;25.27;10.45;;;7.40;99.90;;;;;;4974625;28;20127;-94
2021/12/24 02:33:02;;;;;;;29.35;11.20;;;5.40;99.90;;;;;;4940466;28;20058;-95
2021/12/24 02:35:47;;;;;;;25.17;10.90;;;6.60;99.90;;;;;;4941353;28;20054;-94
2021/12/24 02:38:13;;;;;;;29.75;11.02;;;6.30;99.90;;;;;;4940288;28;20050;-95
2021/12/24 02:40:44;;;;;;;25.70;10.63;;;7.10;99.90;;;;;;4955871;28;20043;-95
2021/12/24 02:43:14;;;;;;;24.00;10.05;;;6.30;99.90;;;;;;4941535;28;20105;-95
2021/12/24 02:45:56;;;;;;;26.38;11.13;;;7.20;99.90;;;;;;4956554;28;20058;-96
2021/12/24 02:54:06;;;;;;;29.42;11.55;;;6.50;99.90;;;;;;4971941;28;20058;-95
2021/12/24 02:56:53;;;;;;;31.40;11.98;;;6.40;99.90;;;;;;4955023;28;20158;-95
2021/12/24 02:59:29;;;;;;;27.35;11.10;;;7.30;99.90;;;;;;4955661;28;20629;-95
2021/12/24 03:02:10;;;;;;;28.13;11.75;;;5.90;99.90;;;;;;4955985;28;20046;-95
2021/12/24 03:04:36;;;;;;;34.50;11.90;;;7.70;99.90;;;;;;4955749;28;20573;-95
2021/12/24 03:07:08;;;;;;;33.53;12.35;;;7.70;99.90;;;;;;4956470;28;20051;-95
2021/12/24 03:09:47;;;;;;;32.00;12.25;;;7.30;99.90;;;;;;4954597;28;20528;-95
2021/12/24 03:12:36;;;;;;;37.45;12.45;;;7.20;99.90;;;;;;4955257;28;20058;-95
2021/12/24 03:15:01;;;;;;;31.63;11.90;;;6.70;99.90;;;;;;4956104;28;20046;-95
2021/12/24 03:17:48;;;;;;;35.03;13.10;;;6.70;99.90;;;;;;4954342;28;20050;-94
2021/12/24 03:20:13;;;;;;;38.22;13.73;;;6.60;99.90;;;;;;4955561;28;20061;-95
2021/12/24 03:23:07;;;;;;;34.67;13.23;;;7.50;99.90;;;;;;4957441;28;20483;-94
2021/12/24 03:25:39;;;;;;;41.45;14.45;;;8.00;99.90;;;;;;4959550;28;20077;-94
2021/12/24 03:28:11;;;;;;;53.75;16.85;;;6.80;99.90;;;;;;4957756;28;20479;-94
2021/12/24 03:30:36;;;;;;;53.97;17.67;;;6.60;99.90;;;;;;4957268;28;20054;-95
2021/12/24 03:33:12;;;;;;;52.78;16.75;;;7.00;99.90;;;;;;4973333;28;20461;-94
2021/12/24 03:35:37;;;;;;;59.15;18.02;;;7.60;99.90;;;;;;4957146;28;20107;-94
2021/12/24 03:38:21;;;;;;;73.05;19.27;;;7.90;99.90;;;;;;4973401;28;20129;-94
2021/12/24 03:40:47;;;;;;;76.93;19.75;;;6.90;99.90;;;;;;4958504;28;20110;-94
2021/12/24 03:43:13;;;;;;;75.40;18.83;;;6.90;99.90;;;;;;4956333;28;20570;-95
2021/12/24 03:49:00;;;;;;;92.97;22.30;;;6.80;99.90;;;;;;4973223;28;20113;-95
2021/12/24 03:51:43;;;;;;;101.57;24.05;;;7.40;99.90;;;;;;4973340;28;20078;-95
2021/12/24 03:57:04;;;;;;;105.90;24.67;;;7.50;99.90;;;;;;4973621;28;20204;-94
2021/12/24 03:59:32;;;;;;;88.43;23.05;;;7.00;99.90;;;;;;4956754;28;20149;-94
2021/12/24 04:01:58;;;;;;;120.30;25.42;;;7.00;99.90;;;;;;4957000;28;20066;-95
2021/12/24 04:04:24;;;;;;;106.65;23.70;;;7.60;99.90;;;;;;4957769;28;20116;-95
2021/12/24 04:06:53;;;;;;;95.63;23.73;;;8.30;99.90;;;;;;4956975;28;20059;-95
2021/12/24 04:09:19;;;;;;;109.35;24.60;;;8.10;99.90;;;;;;4957062;28;20596;-94
2021/12/24 04:12:09;;;;;;;114.88;27.25;;;7.80;99.90;;;;;;4951943;28;20063;-95
2021/12/24 04:14:35;;;;;;;132.38;28.92;;;7.30;99.90;;;;;;4937854;28;20463;-94
2021/12/24 04:17:10;;;;;;;131.73;28.20;;;7.40;99.90;;;;;;4938285;28;20145;-94
2021/12/24 04:25:44;;;;;;;126.53;29.15;;;7.90;99.90;;;;;;4955083;28;20073;-94
2021/12/24 04:28:23;;;;;;;106.50;25.58;;;7.20;99.90;;;;;;4953947;28;20050;-94
2021/12/24 04:30:59;;;;;;;122.97;28.05;;;7.80;99.90;;;;;;4954812;28;20571;-94
2021/12/24 04:33:31;;;;;;;104.55;24.83;;;8.40;99.90;;;;;;4953346;28;20046;-93
2021/12/24 05:01:16;;;;;;;98.43;28.63;;;8.60;99.90;;;;;;4952849;28;20505;-93
2021/12/24 05:04:12;;;;;;;89.45;28.80;;;7.80;99.90;;;;;;4953532;28;20463;-94
2021/12/24 05:08:00;;;;;;;91.03;29.60;;;8.10;99.90;;;;;;4953073;28;20099;-94
2021/12/24 05:10:37;;;;;;;103.18;31.73;;;7.80;99.90;;;;;;4952608;28;20054;-93
2021/12/24 05:13:20;;;;;;;89.30;29.00;;;7.70;99.90;;;;;;4937459;28;20047;-93
2021/12/24 05:16:04;;;;;;;103.85;34.35;;;7.80;99.90;;;;;;4937682;28;20054;-93
2021/12/24 05:19:02;;;;;;;97.93;32.17;;;8.00;99.90;;;;;;4952901;28;20138;-94
2021/12/24 05:21:43;;;;;;;109.60;33.55;;;7.90;99.90;;;;;;4952996;28;20069;-94
2021/12/24 05:24:27;;;;;;;84.05;29.10;;;8.90;99.90;;;;;;4952732;28;20051;-96
2021/12/24 05:27:14;;;;;;;94.13;31.02;;;8.70;99.90;;;;;;4937138;28;20051;-95
2021/12/24 05:29:55;;;;;;;84.97;30.20;;;8.00;99.90;;;;;;4936788;28;20109;-94
2021/12/24 05:32:27;;;;;;;103.95;32.60;;;8.30;99.90;;;;;;4936669;28;20046;-95
2021/12/24 05:34:53;;;;;;;83.07;30.70;;;9.10;99.90;;;;;;4937343;28;20105;-94
2021/12/24 05:37:19;;;;;;;84.10;32.95;;;8.90;99.90;;;;;;4951921;28;20046;-94
2021/12/24 05:39:50;;;;;;;71.82;31.08;;;8.00;99.90;;;;;;4938153;28;20046;-95
2021/12/24 05:42:26;;;;;;;;;;;;;;;;;;;;;
2021/12/24 05:45:15;;;;;;;87.07;31.50;;;8.00;99.90;;;;;;4953282;28;20062;-95
2021/12/24 05:47:44;;;;;;;85.13;30.92;;;8.00;99.90;;;;;;4953042;28;20047;-94
2021/12/24 05:50:19;;;;;;;78.45;30.20;;;8.00;99.90;;;;;;4937029;28;20133;-93
2021/12/24 05:53:03;;;;;;;92.07;31.52;;;9.10;99.90;;;;;;4936647;28;20146;-94
2021/12/24 05:55:44;;;;;;;78.40;30.05;;;8.20;99.90;;;;;;4936741;28;20112;-94
2021/12/24 05:58:16;;;;;;;74.93;28.13;;;8.00;99.90;;;;;;4936954;28;20046;-95
2021/12/24 06:01:01;;;;;;;73.32;32.03;;;8.10;99.90;;;;;;4937270;28;20097;-94
2021/12/24 06:03:44;;;;;;;85.07;27.45;;;8.10;99.90;;;;;;4939237;28;20046;-92
2021/12/24 06:06:09;;;;;;;69.97;24.35;;;8.60;99.90;;;;;;4956158;28;20384;-95
2021/12/24 06:08:44;;;;;;;69.57;26.05;;;9.20;99.90;;;;;;4940548;28;20145;-94
2021/12/24 06:11:14;;;;;;;68.63;23.55;;;7.90;99.90;;;;;;4942215;28;20134;-94
2021/12/24 06:13:51;;;;;;;64.75;22.08;;;8.90;99.90;;;;;;4975332;28;20051;-94
2021/12/24 06:16:29;;;;;;;57.90;21.52;;;9.10;99.90;;;;;;4959715;28;20062;-94
2021/12/24 06:19:04;;;;;;;78.03;22.23;;;8.10;99.90;;;;;;4959154;28;20509;-94
2021/12/24 06:21:30;;;;;;;61.97;20.15;;;8.10;99.90;;;;;;4974978;28;20085;-94
2021/12/24 06:24:06;;;;;;;66.93;21.20;;;8.10;99.90;;;;;;4992776;28;20057;-92
2021/12/24 06:26:38;;;;;;;51.72;18.15;;;8.10;99.90;;;;;;4958932;28;20075;-93
2021/12/24 06:29:06;;;;;;;51.10;18.52;;;9.10;99.90;;;;;;4959614;28;20486;-94
2021/12/24 06:31:41;;;;;;;61.67;18.40;;;8.10;99.90;;;;;;4961478;28;20057;-94
2021/12/24 06:34:30;;;;;;;49.05;17.20;;;8.90;99.90;;;;;;4977433;28;20046;-94
2021/12/24 06:37:03;;;;;;;;;;;;;;;;;;;;;
2021/12/24 06:39:55;;;;;;;36.60;14.30;;;8.10;99.90;;;;;;4977328;28;20058;-95
2021/12/24 06:42:33;;;;;;;52.22;16.75;;;8.10;99.90;;;;;;4962000;28;20053;-95
2021/12/24 06:48:41;;;;;;;43.33;14.38;;;9.00;99.90;;;;;;4995413;28;20054;-94
2021/12/24 06:51:53;;;;;;;41.30;14.45;;;8.00;99.90;;;;;;4974152;28;20078;-93
2021/12/24 06:55:09;;;;;;;46.40;13.32;;;8.00;99.90;;;;;;4930325;28;20577;-95
2021/12/24 06:58:00;;;;;;;42.65;12.90;;;8.00;99.90;;;;;;4933945;28;20058;-94
2021/12/24 07:00:38;;;;;;;34.70;11.35;;;7.20;99.90;;;;;;4963179;28;20653;-96
2021/12/24 07:03:06;;;;;;;52.97;13.70;;;8.00;99.90;;;;;;4961230;28;20418;-94
2021/12/24 07:09:17;;;;;;;50.58;13.73;;;8.40;99.90;;;;;;4992163;28;20049;-94
2021/12/24 07:12:00;;;;;;;51.53;14.65;;;8.00;99.90;;;;;;4975844;28;20085;-95
2021/12/24 07:14:42;;;;;;;45.75;14.65;;;8.00;99.90;;;;;;4974994;28;20054;-95
2021/12/24 07:17:29;;;;;;;42.95;13.25;;;8.70;99.90;;;;;;4957822;28;20061;-95
2021/12/24 07:20:01;;;;;;;45.53;13.77;;;8.00;99.90;;;;;;4958262;28;20038;-96
2021/12/24 07:22:26;;;;;;;45.95;14.23;;;8.00;99.90;;;;;;4970394;28;20137;-96
2021/12/24 07:24:52;;;;;;;37.88;13.32;;;8.00;99.90;;;;;;4958146;28;20133;-95
2021/12/24 07:27:19;;;;;;;45.97;14.75;;;8.00;99.90;;;;;;4960705;28;20099;-95
2021/12/24 07:29:45;;;;;;;55.67;16.27;;;8.30;99.90;;;;;;4969214;28;20052;-96
2021/12/24 07:32:11;;;;;;;48.70;15.48;;;8.90;99.90;;;;;;4973697;28;20042;-96
2021/12/24 07:34:52;;;;;;;49.03;14.73;;;8.50;99.90;;;;;;4939850;28;20089;-96
2021/12/24 07:37:17;;;;;;;51.25;15.75;;;8.70;99.90;;;;;;4940721;28;20620;-95
2021/12/24 07:39:52;;;;;;;48.22;14.52;;;7.90;99.90;;;;;;4939572;28;20146;-96
2021/12/24 07:42:18;;;;;;;34.53;11.93;;;7.90;99.90;;;;;;4938323;28;20510;-95
2021/12/24 07:44:53;;;;;;;37.33;12.15;;;8.80;99.90;;;;;;4938088;28;20046;-95
2021/12/24 07:47:27;;;;;;;31.85;12.10;;;7.70;99.90;;;;;;4937934;28;20049;-95
2021/12/24 07:51:55;;;;;;;33.28;12.27;;;7.70;99.90;;;;;;4939591;28;20133;-94
2021/12/24 07:53:12;;;;;;;30.52;11.48;;;7.60;99.90;;;;;;4955445;28;20046;-95
2021/12/24 07:55:56;;;;;;;36.22;12.57;;;8.10;99.90;;;;;;4957141;28;20053;-95
2021/12/24 07:58:22;;;;;;;30.15;12.80;;;7.60;99.90;;;;;;4957356;28;20470;-94
2021/12/24 08:01:04;;;;;;;38.85;13.68;;;8.70;99.90;;;;;;4957991;28;20045;-94
2021/12/24 08:03:29;;;;;;;33.15;12.13;;;8.10;99.90;;;;;;4956457;28;20085;-92
2021/12/24 08:06:38;;;;;;;34.45;12.30;;;8.30;99.90;;;;;;4956974;28;20082;-94
2021/12/24 08:09:07;;;;;;;30.92;9.93;;;7.60;99.90;;;;;;4957155;28;20066;-94
2021/12/24 08:11:33;;;;;;;23.33;9.30;;;8.10;99.90;;;;;;4956889;28;20050;-92
2021/12/24 08:14:08;;;;;;;26.30;9.38;;;7.60;99.90;;;;;;4957180;28;20060;-92
2021/12/24 08:16:35;;;;;;;21.42;9.00;;;7.70;99.90;;;;;;4957305;28;20227;-92
2021/12/24 08:19:03;;;;;;;27.33;9.70;;;8.30;99.90;;;;;;4956079;28;20046;-91
2021/12/24 08:21:45;;;;;;;22.40;9.63;;;7.70;99.90;;;;;;4955513;28;20130;-91
2021/12/24 08:24:11;;;;;;;24.73;10.70;;;7.60;99.90;;;;;;4938013;28;20047;-91
2021/12/24 08:26:37;;;;;;;27.33;11.40;;;7.70;99.90;;;;;;4936855;28;20053;-93
2021/12/24 08:29:09;;;;;;;31.55;10.93;;;7.90;99.90;;;;;;4937129;28;20406;-94
2021/12/24 08:31:36;;;;;;;28.00;11.47;;;7.70;99.90;;;;;;4937744;28;20047;-93
2021/12/24 08:34:18;;;;;;;32.35;11.57;;;7.70;99.90;;;;;;4937132;28;20038;-93
2021/12/24 08:36:54;;;;;;;35.40;11.60;;;7.70;99.90;;;;;;4938315;28;20138;-92
2021/12/24 08:39:26;;;;;;;31.05;11.90;;;7.80;99.90;;;;;;4939785;28;20043;-94
2021/12/24 08:41:54;;;;;;;30.15;10.75;;;8.40;99.90;;;;;;4938210;28;20042;-92
2021/12/24 08:44:25;;;;;;;35.42;11.75;;;8.80;99.90;;;;;;4937553;28;20137;-95
2021/12/24 08:46:51;;;;;;;31.95;10.85;;;8.70;99.90;;;;;;4936379;28;20135;-93
2021/12/24 08:49:18;;;;;;;28.45;11.48;;;7.70;99.90;;;;;;4937676;28;20049;-94
2021/12/24 08:51:48;;;;;;;28.50;11.35;;;7.80;99.90;;;;;;4937966;28;20039;-94
2021/12/24 08:54:14;;;;;;;25.42;11.60;;;8.40;99.90;;;;;;4937173;28;20169;-94
2021/12/24 08:56:54;;;;;;;27.98;10.90;;;8.90;99.90;;;;;;4940792;28;20071;-94
2021/12/24 08:59:20;;;;;;;33.45;10.82;;;7.70;99.90;;;;;;4937287;28;20623;-91
2021/12/24 09:01:45;;;;;;;38.90;11.23;;;7.70;99.90;;;;;;4937179;28;20038;-95
2021/12/24 09:04:17;;;;;;;31.48;9.93;;;8.80;99.90;;;;;;4937225;28;20483;-94
2021/12/24 09:06:43;;;;;;;35.05;11.18;;;8.20;99.90;;;;;;4937172;28;20503;-92
2021/12/24 09:09:18;;;;;;;40.83;11.43;;;8.70;99.90;;;;;;4936859;28;20050;-93
2021/12/24 09:11:44;;;;;;;33.70;11.45;;;8.60;99.90;;;;;;4938064;28;20479;-94
2021/12/24 09:14:26;;;;;;;30.25;10.38;;;8.80;99.90;;;;;;4937811;28;20053;-95
2021/12/24 09:16:52;;;;;;;31.08;11.35;;;7.70;99.90;;;;;;4936732;28;20051;-94
2021/12/24 09:19:32;;;;;;;40.88;10.95;;;8.80;99.90;;;;;;4937016;28;20471;-95
2021/12/24 09:22:04;;;;;;;44.40;12.32;;;8.70;99.90;;;;;;4936897;28;20046;-93
2021/12/24 09:24:33;;;;;;;20.52;7.45;;;7.60;99.90;;;;;;4937635;28;20097;-92
2021/12/24 09:27:05;;;;;;;6.70;3.53;;;8.40;99.90;;;;;;4937896;28;20051;-94
2021/12/24 09:29:46;;;;;;;5.20;2.63;;;7.30;99.90;;;;;;4936201;28;20078;-94
2021/12/24 09:36:12;;;;;;;6.65;2.40;;;6.90;99.90;;;;;;4927752;28;20058;-92
2021/12/24 09:39:30;;;;;;;5.32;2.95;;;6.60;99.90;;;;;;5033148;23;20102;-90
2021/12/24 09:42:12;;;;;;;6.60;3.53;;;6.40;99.90;;;;;;4965256;28;20046;-93
2021/12/24 09:44:56;;;;;;;7.85;4.15;;;6.30;99.90;;;;;;4978668;28;20053;-94
2021/12/24 09:47:23;;;;;;;8.68;4.47;;;7.20;99.90;;;;;;4978390;28;20068;-94
2021/12/24 09:49:58;;;;;;;9.93;5.22;;;6.10;99.90;;;;;;4979370;28;20049;-93
2021/12/24 09:52:26;;;;;;;12.18;5.72;;;6.00;99.90;;;;;;4994989;28;20128;-94
2021/12/24 09:54:52;;;;;;;11.23;6.13;;;6.70;99.90;;;;;;4979357;28;20042;-94
2021/12/24 09:57:19;;;;;;;13.88;6.63;;;5.90;99.90;;;;;;4994763;28;20092;-95
2021/12/24 09:59:45;;;;;;;13.82;6.60;;;7.20;99.90;;;;;;4995190;28;20538;-94
2021/12/24 10:02:17;;;;;;;14.27;7.60;;;5.90;99.90;;;;;;4979329;28;20077;-94
2021/12/24 10:04:55;;;;;;;15.07;7.18;;;7.00;99.90;;;;;;4980196;28;20168;-93
2021/12/24 10:07:36;;;;;;;12.20;5.80;;;7.00;99.90;;;;;;4978977;28;20136;-94
2021/12/24 10:10:22;;;;;;;14.25;6.85;;;5.80;99.90;;;;;;4979213;28;20110;-94
2021/12/24 10:12:47;;;;;;;18.65;7.00;;;5.70;99.90;;;;;;4994709;28;20056;-94
2021/12/24 10:15:25;;;;;;;13.13;6.10;;;5.80;99.90;;;;;;4979200;28;20132;-93
2021/12/24 10:17:51;;;;;;;13.18;6.78;;;7.10;99.90;;;;;;4978885;28;20052;-93
2021/12/24 10:20:23;;;;;;;7.32;4.60;;;5.80;99.90;;;;;;4978819;28;20041;-92
2021/12/24 10:22:51;;;;;;;7.60;4.43;;;5.90;99.90;;;;;;4980899;28;20046;-89
2021/12/24 10:25:29;;;;;;;9.27;5.30;;;6.90;99.90;;;;;;4978452;28;20490;-88
2021/12/24 10:27:59;;;;;;;8.18;4.38;;;5.70;99.90;;;;;;4984659;28;20050;-89
2021/12/24 10:30:40;;;;;;;8.38;4.95;;;6.90;99.90;;;;;;4991906;28;20128;-88
2021/12/24 10:33:08;;;;;;;10.93;5.40;;;5.70;99.90;;;;;;4968858;28;20121;-91
2021/12/24 10:36:01;;;;;;;10.20;4.63;;;6.20;99.90;;;;;;4970782;28;20053;-91
2021/12/24 10:42:52;;;;;;;11.18;5.68;;;5.30;99.90;;;;;;4975163;28;20399;-89
2021/12/24 10:45:24;;;;;;;10.30;5.68;;;5.60;99.90;;;;;;4990084;28;20054;-91
2021/12/24 10:51:41;;;;;;;11.32;5.82;;;5.60;99.90;;;;;;4995246;28;20048;-91
2021/12/24 10:54:18;;;;;;;11.32;5.63;;;6.40;99.90;;;;;;4975034;28;20050;-92
2021/12/24 10:56:55;;;;;;;14.50;6.38;;;6.30;99.90;;;;;;4958964;28;20049;-93
2021/12/24 10:59:41;;;;;;;10.20;5.88;;;5.90;99.90;;;;;;4958703;28;20092;-91
2021/12/24 11:20:17;;;;;;;8.63;4.50;;;5.40;99.90;;;;;;5193829;23;20058;-96
2021/12/24 11:22:53;;;;;;;10.77;5.40;;;5.30;99.90;;;;;;4981478;28;20097;-96
2021/12/24 11:25:24;;;;;;;10.27;5.20;;;4.70;99.90;;;;;;4984840;28;20045;-96
2021/12/24 11:27:52;;;;;;;9.95;5.10;;;6.40;99.90;;;;;;4984190;28;20050;-96
2021/12/24 11:30:27;;;;;;;8.05;4.72;;;5.30;99.90;;;;;;4984082;28;20048;-96
2021/12/24 11:32:56;;;;;;;8.48;4.68;;;5.30;99.90;;;;;;4986148;28;20291;-96
2021/12/24 11:36:02;;;;;;;11.05;4.38;;;5.30;99.90;;;;;;5003317;28;20041;-94
2021/12/24 11:38:43;;;;;;;8.65;4.95;;;5.30;99.90;;;;;;5004689;28;20050;-96
2021/12/24 11:53:21;;;;;;;9.23;4.88;;;5.20;99.90;;;;;;5307393;22;20072;-96
2021/12/24 11:55:50;;;;;;;12.75;5.38;;;6.40;99.90;;;;;;5003137;28;20057;-96
2021/12/24 11:58:32;;;;;;;11.80;5.07;;;5.20;99.90;;;;;;4987302;28;20048;-96
2021/12/24 12:02:07;;;;;;;11.52;5.80;;;5.20;99.90;;;;;;4964176;28;20082;-96
2021/12/24 12:05:36;;;;;;;12.00;5.80;;;5.30;99.90;;;;;;4980441;28;20081;-96
2021/12/24 12:12:01;;;;;;;12.80;5.80;;;5.30;99.90;;;;;;5186204;22;20548;-85
2021/12/24 12:14:31;;;;;;;9.02;5.20;;;5.30;99.90;;;;;;4975837;28;20061;-85
2021/12/24 12:17:00;;;;;;;12.43;5.70;;;6.20;99.90;;;;;;4991822;28;20041;-85
2021/12/24 12:19:36;;;;;;;14.43;6.70;;;5.30;99.90;;;;;;4975246;28;20045;-86
2021/12/24 12:22:15;;;;;;;7.95;4.95;;;6.20;99.90;;;;;;4985620;28;20498;-85
2021/12/24 12:27:18;;;;;;;12.85;6.50;;;5.40;99.90;;;;;;4972042;28;20502;-85
2021/12/24 12:29:45;;;;;;;9.95;5.63;;;5.40;99.90;;;;;;4972593;28;20505;-85
2021/12/24 12:32:12;;;;;;;14.98;6.13;;;5.50;99.90;;;;;;4971501;28;20410;-86
2021/12/24 12:34:39;;;;;;;9.65;5.57;;;6.00;99.90;;;;;;4971481;28;20052;-86
2021/12/24 12:37:16;;;;;;;12.02;5.75;;;5.60;99.90;;;;;;4972536;28;20557;-86
2021/12/24 12:39:43;;;;;;;9.45;5.63;;;5.60;99.90;;;;;;4971604;28;20046;-85
2021/12/24 12:42:09;;;;;;;9.90;5.18;;;6.10;99.90;;;;;;4972357;28;20096;-85
2021/12/24 12:44:38;;;;;;;11.20;4.65;;;6.30;99.90;;;;;;4987979;28;20054;-86
2021/12/24 12:47:11;;;;;;;8.25;5.22;;;6.30;99.90;;;;;;4971212;28;20051;-86
2021/12/24 12:49:37;;;;;;;;;;;5.80;99.90;;;;;;4972503;28;20085;-86
2021/12/24 12:52:07;;;;;;;8.05;4.63;;;5.90;99.90;;;;;;4971997;28;19922;-86
2021/12/24 12:54:41;;;;;;;8.73;5.15;;;5.90;99.90;;;;;;4955285;28;20494;-85
2021/12/24 12:57:12;;;;;;;7.85;5.25;;;5.90;99.90;;;;;;4955422;28;20046;-85
2021/12/24 12:59:39;;;;;;;10.10;4.28;;;6.00;99.90;;;;;;4972035;28;20561;-86
2021/12/24 13:02:05;;;;;;;8.18;4.20;;;6.40;99.90;;;;;;4973589;28;20569;-86
2021/12/24 13:04:31;;;;;;;10.43;4.80;;;6.00;99.90;;;;;;4975500;28;20046;-86
2021/12/24 13:07:02;;;;;;;8.50;4.60;;;6.30;99.90;;;;;;4991260;28;20100;-93
2021/12/24 13:09:46;;;;;;;9.43;4.50;;;6.00;99.90;;;;;;4974890;28;20056;-85
2021/12/24 13:12:16;;;;;;;9.45;4.28;;;7.10;99.90;;;;;;4964764;28;20062;-86
2021/12/24 13:14:48;;;;;;;6.20;4.20;;;7.20;99.90;;;;;;4975070;28;20050;-86
2021/12/24 13:22:28;;;;;;;6.75;4.65;;;7.00;99.90;;;;;;4974663;28;20046;-84
2021/12/24 13:25:09;;;;;;;6.07;3.72;;;6.10;99.90;;;;;;4975830;28;20043;-85
2021/12/24 13:27:39;;;;;;;6.30;4.25;;;6.10;99.90;;;;;;4958720;28;20413;-86
2021/12/24 13:30:11;;;;;;;9.60;5.03;;;6.70;99.90;;;;;;4958661;28;20106;-84
2021/12/24 13:32:40;;;;;;;9.13;4.65;;;6.40;99.90;;;;;;4973713;28;20584;-87
2021/12/24 13:35:25;;;;;;;8.25;4.65;;;6.10;99.90;;;;;;4959647;28;20046;-95
2021/12/24 13:40:30;;;;;;;7.13;4.70;;;6.00;99.90;;;;;;5405401;23;20107;-87
2021/12/24 13:43:46;;;;;;;8.75;4.47;;;6.00;99.90;;;;;;4993790;28;20054;-89
2021/12/24 13:46:27;;;;;;;9.05;4.47;;;5.90;99.90;;;;;;4964484;28;20050;-90
2021/12/24 13:50:04;;;;;;;10.20;5.15;;;6.00;99.90;;;;;;4978125;28;20046;-86
2021/12/24 13:54:51;;;;;;;9.65;5.70;;;5.70;99.90;;;;;;4998762;28;20046;-96
2021/12/24 13:57:17;;;;;;;9.15;5.50;;;6.40;99.90;;;;;;4982412;28;20070;-93
2021/12/24 13:59:53;;;;;;;7.25;4.88;;;6.20;99.90;;;;;;4979257;28;20567;-87
2021/12/24 14:02:19;;;;;;;9.55;4.93;;;5.90;99.90;;;;;;4977805;28;20061;-94
2021/12/24 14:05:01;;;;;;;9.60;5.07;;;7.00;99.90;;;;;;4979305;28;20100;-92
2021/12/24 14:07:26;;;;;;;8.15;5.00;;;6.80;99.90;;;;;;4986095;23;20053;-93
2021/12/24 14:09:52;;;;;;;7.22;4.72;;;5.90;99.90;;;;;;4979499;28;20422;-90
2021/12/24 14:12:24;;;;;;;8.02;4.75;;;5.90;99.90;;;;;;4977816;28;20149;-85
2021/12/24 14:15:23;;;;;;;7.40;4.10;;;6.00;99.90;;;;;;4979305;28;20056;-86
2021/12/24 14:18:05;;;;;;;7.88;3.90;;;7.10;99.90;;;;;;4976768;28;20100;-87
2021/12/24 14:21:00;;;;;;;10.77;4.88;;;6.30;99.90;;;;;;4979662;28;20049;-86
2021/12/24 14:23:42;;;;;;;11.00;4.50;;;7.10;99.90;;;;;;4969247;28;20054;-85
2021/12/24 14:26:34;;;;;;;9.98;4.55;;;5.80;99.90;;;;;;4975561;28;20100;-85
2021/12/24 14:29:12;;;;;;;11.52;4.95;;;5.40;99.90;;;;;;4991786;28;20058;-85
2021/12/24 14:32:00;;;;;;;8.70;4.55;;;5.80;99.90;;;;;;4963169;28;20051;-86
2021/12/24 14:34:52;;;;;;;4.50;1.90;;;5.80;99.90;;;;;;4969422;28;20042;-85
2021/12/24 14:37:59;;;;;;;5.82;2.00;;;5.80;99.90;;;;;;4993316;28;20127;-86
2021/12/24 14:40:58;;;;;;;8.55;2.30;;;5.80;99.90;;;;;;4991258;28;20120;-85
2021/12/24 14:43:35;;;;;;;12.55;2.40;;;5.90;99.90;;;;;;4976444;28;20049;-85
2021/12/24 14:46:17;;;;;;;12.18;2.22;;;5.80;99.90;;;;;;4976637;28;20052;-86
2021/12/24 14:48:43;;;;;;;5.07;1.67;;;5.90;99.90;;;;;;4976253;28;20511;-86
2021/12/24 14:51:28;;;;;;;5.32;1.70;;;5.70;99.90;;;;;;4977682;28;20046;-85
2021/12/24 14:57:36;;;;;;;3.90;1.23;;;5.70;99.90;;;;;;4993270;28;20053;-85
2021/12/24 15:00:08;;;;;;;2.65;1.02;;;5.60;99.90;;;;;;4898630;29;20062;-85
2021/12/24 15:02:40;;;;;;;6.60;1.02;;;5.50;99.90;;;;;;4951673;28;20056;-86
2021/12/24 15:05:37;;;;;;;4.20;0.73;;;5.90;99.90;;;;;;4954674;28;20046;-90
2021/12/24 15:08:34;;;;;;;5.93;0.90;;;5.60;99.90;;;;;;4966483;28;20089;-89
2021/12/24 15:11:18;;;;;;;3.88;0.77;;;5.50;99.90;;;;;;4973004;28;20777;-87
2021/12/24 15:13:54;;;;;;;2.28;0.90;;;5.50;99.90;;;;;;4974933;28;20047;-88
2021/12/24 15:16:23;;;;;;;7.35;1.10;;;5.50;99.90;;;;;;4971984;28;20046;-89
2021/12/24 15:18:50;;;;;;;5.05;1.10;;;5.50;99.90;;;;;;4987008;28;20050;-92
2021/12/24 15:21:34;;;;;;;9.43;1.08;;;5.50;99.90;;;;;;4968349;28;20402;-93
2021/12/24 15:24:03;;;;;;;8.77;1.13;;;5.40;99.90;;;;;;4965309;28;20494;-92
2021/12/24 15:26:29;;;;;;;7.53;1.10;;;5.30;99.90;;;;;;4974725;28;20054;-91
2021/12/24 15:29:01;;;;;;;8.63;1.02;;;6.10;99.90;;;;;;4974795;28;20053;-92
2021/12/24 15:31:42;;;;;;;6.63;1.05;;;5.10;99.90;;;;;;4974111;28;20046;-90
2021/12/24 15:34:36;;;;;;;5.45;0.75;;;4.90;99.90;;;;;;4973897;28;20054;-87
2021/12/24 15:37:05;;;;;;;5.72;0.90;;;5.90;99.90;;;;;;4968492;28;20058;-88
2021/12/24 15:43:36;;;;;;;9.98;1.60;;;4.70;99.90;;;;;;4939520;23;20089;-87
2021/12/24 15:46:02;;;;;;;14.18;2.75;;;4.70;99.90;;;;;;4954357;28;20051;-87
2021/12/24 15:48:28;;;;;;;11.48;2.03;;;5.70;99.90;;;;;;4937256;28;20050;-86
2021/12/24 15:51:05;;;;;;;15.52;3.00;;;4.60;99.90;;;;;;4951752;28;20503;-89
2021/12/24 15:53:33;;;;;;;17.83;3.30;;;5.80;99.90;;;;;;4937625;28;20043;-86
2021/12/24 15:56:04;;;;;;;17.30;4.65;;;5.10;99.90;;;;;;4937662;28;20047;-91
2021/12/24 16:02:56;;;;;;;;;;;;;;;;;;;;;
2021/12/24 16:19:43;;;;;;;27.00;9.32;;;3.90;99.90;;;;;;5742596;22;20142;-95
2021/12/24 16:22:08;;;;;;;23.63;9.60;;;3.90;99.90;;;;;;4952297;28;20134;-96
2021/12/24 16:24:35;;;;;;;34.10;10.82;;;5.10;99.90;;;;;;4935192;29;20057;-96
2021/12/24 16:27:24;;;;;;;30.23;11.38;;;4.80;99.90;;;;;;4937649;29;20051;-96
2021/12/24 16:31:09;;;;;;;24.65;10.48;;;3.30;99.90;;;;;;4945288;28;20053;-96
2021/12/24 16:33:54;;;;;;;25.83;9.77;;;4.90;99.90;;;;;;4932347;28;20050;-96
2021/12/24 16:39:34;;;;;;;24.80;10.75;;;3.10;99.90;;;;;;4960424;28;20059;-96
2021/12/24 16:42:29;;;;;;;25.13;10.73;;;3.60;99.90;;;;;;4992250;23;20068;-88
2021/12/24 16:45:26;;;;;;;32.58;11.18;;;2.90;99.90;;;;;;4940333;28;20053;-88
2021/12/24 16:48:29;;;;;;;30.58;11.02;;;3.30;99.90;;;;;;4933281;28;20098;-86
2021/12/24 16:51:21;;;;;;;27.58;10.82;;;2.60;99.90;;;;;;4958070;28;20046;-88
2021/12/24 16:53:55;;;;;;;26.70;11.10;;;3.50;99.90;;;;;;4956994;28;20049;-88
2021/12/24 16:56:48;;;;;;;;;;;;;;;;;;;;;